sensor_id;sensor_type;location;lat;lon;timestamp;temperature;humidity
2477;DHT22;1249;51.270;6.756;2023-05-07T00:00:19;20.70;99.90
2477;DHT22;1249;51.270;6.756;2023-05-07T00:02:46;20.60;99.90
2477;DHT22;1249;51.270;6.756;2023-05-07T00:05:12;20.60;99.90
2477;DHT22;1249;51.270;6.756;2023-05-07T00:07:37;20.60;99.90
2477;DHT22;1249;51.270;6.756;2023-05-07T00:10:04;20.60;99.90
2477;DHT22;1249;51.270;6.756;2023-05-07T00:12:29;20.60;99.90
2477;DHT22;1249;51.270;6.756;2023-05-07T00:15:02;20.60;99.90
2477;DHT22;1249;51.270;6.756;2023-05-07T00:17:29;20.60;99.90
2477;DHT22;1249;51.270;6.756;2023-05-07T00:19:54;20.60;99.90
2477;DHT22;1249;51.270;6.756;2023-05-07T00:22:20;20.60;99.90
2477;DHT22;1249;51.270;6.756;2023-05-07T00:24:46;20.60;99.90
2477;DHT22;1249;51.270;6.756;2023-05-07T00:27:12;20.60;99.90
2477;DHT22;1249;51.270;6.756;2023-05-07T00:29:37;20.60;99.90
2477;DHT22;1249;51.270;6.756;2023-05-07T00:32:03;20.50;99.90
2477;DHT22;1249;51.270;6.756;2023-05-07T00:34:29;20.50;99.90
2477;DHT22;1249;51.270;6.756;2023-05-07T00:36:54;20.50;99.90
2477;DHT22;1249;51.270;6.756;2023-05-07T00:39:20;20.50;99.90
2477;DHT22;1249;51.270;6.756;2023-05-07T00:41:45;20.50;99.90
2477;DHT22;1249;51.270;6.756;2023-05-07T00:44:11;20.50;99.90
2477;DHT22;1249;51.270;6.756;2023-05-07T00:46:37;20.50;99.90
2477;DHT22;1249;51.270;6.756;2023-05-07T00:49:03;20.40;99.90
2477;DHT22;1249;51.270;6.756;2023-05-07T00:51:30;20.40;99.90
2477;DHT22;1249;51.270;6.756;2023-05-07T00:53:56;20.40;99.90
2477;DHT22;1249;51.270;6.756;2023-05-07T00:56:22;20.40;99.90
2477;DHT22;1249;51.270;6.756;2023-05-07T00:58:49;20.40;99.90
2477;DHT22;1249;51.270;6.756;2023-05-07T01:01:15;20.40;99.90
2477;DHT22;1249;51.270;6.756;2023-05-07T01:03:43;20.40;99.90
2477;DHT22;1249;51.270;6.756;2023-05-07T01:06:10;20.40;99.90
2477;DHT22;1249;51.270;6.756;2023-05-07T01:08:41;20.40;99.90
2477;DHT22;1249;51.270;6.756;2023-05-07T01:11:08;20.40;99.90
2477;DHT22;1249;51.270;6.756;2023-05-07T01:13:35;20.40;99.90
2477;DHT22;1249;51.270;6.756;2023-05-07T01:16:01;20.40;99.90
2477;DHT22;1249;51.270;6.756;2023-05-07T01:18:27;20.30;99.90
2477;DHT22;1249;51.270;6.756;2023-05-07T01:20:56;20.30;99.90
2477;DHT22;1249;51.270;6.756;2023-05-07T01:23:23;20.30;99.90
2477;DHT22;1249;51.270;6.756;2023-05-07T01:25:53;20.30;99.90
2477;DHT22;1249;51.270;6.756;2023-05-07T01:28:19;20.30;99.90
2477;DHT22;1249;51.270;6.756;2023-05-07T01:30:48;20.30;99.90
2477;DHT22;1249;51.270;6.756;2023-05-07T01:33:19;20.30;99.90
2477;DHT22;1249;51.270;6.756;2023-05-07T01:35:48;20.30;99.90
2477;DHT22;1249;51.270;6.756;2023-05-07T01:38:14;20.20;99.90
2477;DHT22;1249;51.270;6.756;2023-05-07T01:40:40;20.20;99.90
2477;DHT22;1249;51.270;6.756;2023-05-07T01:43:06;20.20;99.90
2477;DHT22;1249;51.270;6.756;2023-05-07T01:45:32;20.20;99.90
2477;DHT22;1249;51.270;6.756;2023-05-07T01:47:59;20.20;99.90
2477;DHT22;1249;51.270;6.756;2023-05-07T01:50:25;20.20;99.90
2477;DHT22;1249;51.270;6.756;2023-05-07T01:52:51;20.20;99.90
2477;DHT22;1249;51.270;6.756;2023-05-07T01:55:17;20.20;99.90
2477;DHT22;1249;51.270;6.756;2023-05-07T01:57:43;20.20;99.90
2477;DHT22;1249;51.270;6.756;2023-05-07T02:00:09;20.10;99.90
2477;DHT22;1249;51.270;6.756;2023-05-07T02:02:35;20.10;99.90
2477;DHT22;1249;51.270;6.756;2023-05-07T02:05:01;20.00;99.90
2477;DHT22;1249;51.270;6.756;2023-05-07T02:07:27;20.10;99.90
2477;DHT22;1249;51.270;6.756;2023-05-07T02:09:53;20.00;99.90
2477;DHT22;1249;51.270;6.756;2023-05-07T02:12:20;20.10;99.90
2477;DHT22;1249;51.270;6.756;2023-05-07T02:14:46;20.00;99.90
2477;DHT22;1249;51.270;6.756;2023-05-07T02:17:12;20.00;99.90
2477;DHT22;1249;51.270;6.756;2023-05-07T02:19:37;20.00;99.90
2477;DHT22;1249;51.270;6.756;2023-05-07T02:22:03;20.00;99.90
2477;DHT22;1249;51.270;6.756;2023-05-07T02:24:28;20.00;99.90
2477;DHT22;1249;51.270;6.756;2023-05-07T02:26:54;19.90;99.90
2477;DHT22;1249;51.270;6.756;2023-05-07T02:29:19;19.90;99.90
2477;DHT22;1249;51.270;6.756;2023-05-07T02:31:45;19.90;99.90
2477;DHT22;1249;51.270;6.756;2023-05-07T02:34:11;19.90;99.90
2477;DHT22;1249;51.270;6.756;2023-05-07T02:36:36;19.90;99.90
2477;DHT22;1249;51.270;6.756;2023-05-07T02:39:02;19.90;99.90
2477;DHT22;1249;51.270;6.756;2023-05-07T02:41:28;19.80;99.90
2477;DHT22;1249;51.270;6.756;2023-05-07T02:43:54;19.90;99.90
2477;DHT22;1249;51.270;6.756;2023-05-07T02:46:19;19.80;99.90
2477;DHT22;1249;51.270;6.756;2023-05-07T02:48:45;19.80;99.90
2477;DHT22;1249;51.270;6.756;2023-05-07T02:51:10;19.80;99.90
2477;DHT22;1249;51.270;6.756;2023-05-07T02:53:36;19.80;99.90
2477;DHT22;1249;51.270;6.756;2023-05-07T02:56:02;19.80;99.90
2477;DHT22;1249;51.270;6.756;2023-05-07T02:58:28;19.80;99.90
2477;DHT22;1249;51.270;6.756;2023-05-07T03:00:54;19.80;99.90
2477;DHT22;1249;51.270;6.756;2023-05-07T03:03:23;19.80;99.90
2477;DHT22;1249;51.270;6.756;2023-05-07T03:05:48;19.70;99.90
2477;DHT22;1249;51.270;6.756;2023-05-07T03:08:14;19.70;99.90
2477;DHT22;1249;51.270;6.756;2023-05-07T03:10:39;19.70;99.90
2477;DHT22;1249;51.270;6.756;2023-05-07T03:13:05;19.70;99.90
2477;DHT22;1249;51.270;6.756;2023-05-07T03:15:31;19.70;99.90
2477;DHT22;1249;51.270;6.756;2023-05-07T03:17:56;19.70;99.90
2477;DHT22;1249;51.270;6.756;2023-05-07T03:20:22;19.70;99.90
2477;DHT22;1249;51.270;6.756;2023-05-07T03:22:47;19.70;99.90
2477;DHT22;1249;51.270;6.756;2023-05-07T03:25:13;19.70;99.90
2477;DHT22;1249;51.270;6.756;2023-05-07T03:27:40;19.70;99.90
2477;DHT22;1249;51.270;6.756;2023-05-07T03:30:07;19.70;99.90
2477;DHT22;1249;51.270;6.756;2023-05-07T03:32:34;19.70;99.90
2477;DHT22;1249;51.270;6.756;2023-05-07T03:35:00;19.70;99.90
2477;DHT22;1249;51.270;6.756;2023-05-07T03:37:26;19.70;99.90
2477;DHT22;1249;51.270;6.756;2023-05-07T03:39:51;19.60;99.90
2477;DHT22;1249;51.270;6.756;2023-05-07T03:42:17;19.60;99.90
2477;DHT22;1249;51.270;6.756;2023-05-07T03:44:44;19.60;99.90
2477;DHT22;1249;51.270;6.756;2023-05-07T03:47:09;19.50;99.90
2477;DHT22;1249;51.270;6.756;2023-05-07T03:49:35;19.50;99.90
2477;DHT22;1249;51.270;6.756;2023-05-07T03:52:01;19.50;99.90
2477;DHT22;1249;51.270;6.756;2023-05-07T03:54:26;19.40;99.90
2477;DHT22;1249;51.270;6.756;2023-05-07T03:56:52;19.50;99.90
2477;DHT22;1249;51.270;6.756;2023-05-07T03:59:18;19.50;99.90
2477;DHT22;1249;51.270;6.756;2023-05-07T04:01:43;19.50;99.90
2477;DHT22;1249;51.270;6.756;2023-05-07T04:04:09;19.50;99.90
2477;DHT22;1249;51.270;6.756;2023-05-07T04:06:34;19.50;99.90
2477;DHT22;1249;51.270;6.756;2023-05-07T04:09:00;19.60;99.90
2477;DHT22;1249;51.270;6.756;2023-05-07T04:11:26;19.70;99.90
2477;DHT22;1249;51.270;6.756;2023-05-07T04:13:51;19.70;99.90
2477;DHT22;1249;51.270;6.756;2023-05-07T04:16:17;19.70;99.90
2477;DHT22;1249;51.270;6.756;2023-05-07T04:18:42;19.80;99.90
2477;DHT22;1249;51.270;6.756;2023-05-07T04:21:18;19.80;99.90
2477;DHT22;1249;51.270;6.756;2023-05-07T04:23:45;19.80;99.90
2477;DHT22;1249;51.270;6.756;2023-05-07T04:26:11;19.80;99.90
2477;DHT22;1249;51.270;6.756;2023-05-07T04:28:36;19.80;99.90
2477;DHT22;1249;51.270;6.756;2023-05-07T04:31:02;19.80;99.90
2477;DHT22;1249;51.270;6.756;2023-05-07T04:33:27;19.80;99.90
2477;DHT22;1249;51.270;6.756;2023-05-07T04:35:53;19.90;99.90
2477;DHT22;1249;51.270;6.756;2023-05-07T04:38:18;19.80;99.90
2477;DHT22;1249;51.270;6.756;2023-05-07T04:40:44;19.80;99.90
2477;DHT22;1249;51.270;6.756;2023-05-07T04:43:10;19.80;99.90
2477;DHT22;1249;51.270;6.756;2023-05-07T04:45:36;19.90;99.90
2477;DHT22;1249;51.270;6.756;2023-05-07T04:48:02;19.90;99.90
2477;DHT22;1249;51.270;6.756;2023-05-07T04:50:27;19.80;99.90
2477;DHT22;1249;51.270;6.756;2023-05-07T04:52:53;19.80;99.90
2477;DHT22;1249;51.270;6.756;2023-05-07T04:55:18;19.90;99.90
2477;DHT22;1249;51.270;6.756;2023-05-07T04:57:44;19.90;99.90
2477;DHT22;1249;51.270;6.756;2023-05-07T05:00:11;19.90;99.90
2477;DHT22;1249;51.270;6.756;2023-05-07T05:02:39;19.90;99.90
2477;DHT22;1249;51.270;6.756;2023-05-07T05:05:06;20.00;99.90
2477;DHT22;1249;51.270;6.756;2023-05-07T05:07:32;19.90;99.90
2477;DHT22;1249;51.270;6.756;2023-05-07T05:09:57;19.90;99.90
2477;DHT22;1249;51.270;6.756;2023-05-07T05:12:23;20.00;99.90
2477;DHT22;1249;51.270;6.756;2023-05-07T05:14:48;20.00;99.90
2477;DHT22;1249;51.270;6.756;2023-05-07T05:17:14;20.00;99.90
2477;DHT22;1249;51.270;6.756;2023-05-07T05:19:39;20.00;99.90
2477;DHT22;1249;51.270;6.756;2023-05-07T05:22:05;20.10;99.90
2477;DHT22;1249;51.270;6.756;2023-05-07T05:24:31;20.10;99.90
2477;DHT22;1249;51.270;6.756;2023-05-07T05:26:57;20.00;99.90
2477;DHT22;1249;51.270;6.756;2023-05-07T05:29:22;20.00;99.90
2477;DHT22;1249;51.270;6.756;2023-05-07T05:31:48;20.10;99.90
2477;DHT22;1249;51.270;6.756;2023-05-07T05:34:13;20.10;99.90
2477;DHT22;1249;51.270;6.756;2023-05-07T05:36:39;20.20;99.90
2477;DHT22;1249;51.270;6.756;2023-05-07T05:39:04;20.20;99.90
2477;DHT22;1249;51.270;6.756;2023-05-07T05:41:31;20.20;99.90
2477;DHT22;1249;51.270;6.756;2023-05-07T05:43:56;20.20;99.90
2477;DHT22;1249;51.270;6.756;2023-05-07T05:46:22;20.30;99.90
2477;DHT22;1249;51.270;6.756;2023-05-07T05:48:48;20.30;99.90
2477;DHT22;1249;51.270;6.756;2023-05-07T05:51:13;20.30;99.90
2477;DHT22;1249;51.270;6.756;2023-05-07T05:53:39;20.30;99.90
2477;DHT22;1249;51.270;6.756;2023-05-07T05:56:05;20.30;99.90
2477;DHT22;1249;51.270;6.756;2023-05-07T05:58:30;20.40;99.90
2477;DHT22;1249;51.270;6.756;2023-05-07T06:00:56;20.40;99.90
2477;DHT22;1249;51.270;6.756;2023-05-07T06:03:22;20.40;99.90
2477;DHT22;1249;51.270;6.756;2023-05-07T06:05:47;20.40;99.90
2477;DHT22;1249;51.270;6.756;2023-05-07T06:08:13;20.40;99.90
2477;DHT22;1249;51.270;6.756;2023-05-07T06:10:38;20.50;99.90
2477;DHT22;1249;51.270;6.756;2023-05-07T06:13:04;20.50;99.90
2477;DHT22;1249;51.270;6.756;2023-05-07T06:15:30;20.50;99.90
2477;DHT22;1249;51.270;6.756;2023-05-07T06:17:56;20.50;99.90
2477;DHT22;1249;51.270;6.756;2023-05-07T06:20:22;20.60;99.90
2477;DHT22;1249;51.270;6.756;2023-05-07T06:22:48;20.60;99.90
2477;DHT22;1249;51.270;6.756;2023-05-07T06:25:14;20.60;99.90
2477;DHT22;1249;51.270;6.756;2023-05-07T06:27:40;20.70;99.90
2477;DHT22;1249;51.270;6.756;2023-05-07T06:30:06;20.80;99.90
2477;DHT22;1249;51.270;6.756;2023-05-07T06:32:32;20.80;99.90
2477;DHT22;1249;51.270;6.756;2023-05-07T06:34:57;20.80;99.90
2477;DHT22;1249;51.270;6.756;2023-05-07T06:37:23;20.80;99.90
2477;DHT22;1249;51.270;6.756;2023-05-07T06:39:49;20.90;99.90
2477;DHT22;1249;51.270;6.756;2023-05-07T06:42:14;20.90;99.90
2477;DHT22;1249;51.270;6.756;2023-05-07T06:44:40;20.90;99.90
2477;DHT22;1249;51.270;6.756;2023-05-07T06:47:06;20.90;99.90
2477;DHT22;1249;51.270;6.756;2023-05-07T06:49:31;21.00;99.90
2477;DHT22;1249;51.270;6.756;2023-05-07T06:51:57;21.00;99.90
2477;DHT22;1249;51.270;6.756;2023-05-07T06:54:23;21.00;99.90
2477;DHT22;1249;51.270;6.756;2023-05-07T06:56:48;21.10;99.90
2477;DHT22;1249;51.270;6.756;2023-05-07T06:59:14;21.30;99.90
2477;DHT22;1249;51.270;6.756;2023-05-07T07:01:40;21.60;99.90
2477;DHT22;1249;51.270;6.756;2023-05-07T07:04:06;21.60;99.90
2477;DHT22;1249;51.270;6.756;2023-05-07T07:06:31;21.80;99.90
2477;DHT22;1249;51.270;6.756;2023-05-07T07:08:58;21.90;99.90
2477;DHT22;1249;51.270;6.756;2023-05-07T07:11:24;22.10;99.90
2477;DHT22;1249;51.270;6.756;2023-05-07T07:13:49;22.10;99.90
2477;DHT22;1249;51.270;6.756;2023-05-07T07:16:16;22.00;99.90
2477;DHT22;1249;51.270;6.756;2023-05-07T07:18:42;22.00;99.90
2477;DHT22;1249;51.270;6.756;2023-05-07T07:21:07;22.10;99.90
2477;DHT22;1249;51.270;6.756;2023-05-07T07:23:33;22.30;99.90
2477;DHT22;1249;51.270;6.756;2023-05-07T07:25:58;22.40;99.90
2477;DHT22;1249;51.270;6.756;2023-05-07T07:28:24;22.60;99.90
2477;DHT22;1249;51.270;6.756;2023-05-07T07:30:50;22.60;99.90
2477;DHT22;1249;51.270;6.756;2023-05-07T07:33:15;22.70;99.90
2477;DHT22;1249;51.270;6.756;2023-05-07T07:35:42;22.80;99.90
2477;DHT22;1249;51.270;6.756;2023-05-07T07:38:07;22.90;99.90
2477;DHT22;1249;51.270;6.756;2023-05-07T07:40:34;23.00;99.90
2477;DHT22;1249;51.270;6.756;2023-05-07T07:43:00;23.00;99.90
2477;DHT22;1249;51.270;6.756;2023-05-07T07:45:26;23.10;99.90
2477;DHT22;1249;51.270;6.756;2023-05-07T07:47:52;23.10;99.90
2477;DHT22;1249;51.270;6.756;2023-05-07T07:50:18;23.10;99.90
2477;DHT22;1249;51.270;6.756;2023-05-07T07:52:43;23.20;99.90
2477;DHT22;1249;51.270;6.756;2023-05-07T07:55:09;23.30;99.90
2477;DHT22;1249;51.270;6.756;2023-05-07T07:57:35;23.30;99.90
2477;DHT22;1249;51.270;6.756;2023-05-07T08:00:01;23.40;99.90
2477;DHT22;1249;51.270;6.756;2023-05-07T08:02:26;23.50;99.90
2477;DHT22;1249;51.270;6.756;2023-05-07T08:04:52;23.50;99.90
2477;DHT22;1249;51.270;6.756;2023-05-07T08:07:17;23.50;99.90
2477;DHT22;1249;51.270;6.756;2023-05-07T08:09:45;23.60;99.90
2477;DHT22;1249;51.270;6.756;2023-05-07T08:12:11;23.60;99.90
2477;DHT22;1249;51.270;6.756;2023-05-07T08:14:37;23.80;99.90
2477;DHT22;1249;51.270;6.756;2023-05-07T08:17:02;24.00;99.90
2477;DHT22;1249;51.270;6.756;2023-05-07T08:19:28;24.20;99.90
2477;DHT22;1249;51.270;6.756;2023-05-07T08:21:54;24.40;99.90
2477;DHT22;1249;51.270;6.756;2023-05-07T08:24:20;24.70;99.90
2477;DHT22;1249;51.270;6.756;2023-05-07T08:26:46;25.00;99.30
2477;DHT22;1249;51.270;6.756;2023-05-07T08:29:11;25.20;98.60
2477;DHT22;1249;51.270;6.756;2023-05-07T08:31:37;25.40;98.10
2477;DHT22;1249;51.270;6.756;2023-05-07T08:34:04;25.60;97.60
2477;DHT22;1249;51.270;6.756;2023-05-07T08:36:30;25.60;97.00
2477;DHT22;1249;51.270;6.756;2023-05-07T08:38:56;25.80;96.50
2477;DHT22;1249;51.270;6.756;2023-05-07T08:41:21;25.80;95.70
2477;DHT22;1249;51.270;6.756;2023-05-07T08:43:49;25.80;95.50
2477;DHT22;1249;51.270;6.756;2023-05-07T08:46:20;25.80;95.40
2477;DHT22;1249;51.270;6.756;2023-05-07T08:48:50;25.80;95.30
2477;DHT22;1249;51.270;6.756;2023-05-07T08:51:18;25.80;94.70
2477;DHT22;1249;51.270;6.756;2023-05-07T08:53:45;25.60;94.70
2477;DHT22;1249;51.270;6.756;2023-05-07T08:56:11;25.60;94.90
2477;DHT22;1249;51.270;6.756;2023-05-07T08:58:37;25.40;94.70
2477;DHT22;1249;51.270;6.756;2023-05-07T09:01:09;25.30;94.70
2477;DHT22;1249;51.270;6.756;2023-05-07T09:03:37;25.30;94.60
2477;DHT22;1249;51.270;6.756;2023-05-07T09:06:03;25.40;94.50
2477;DHT22;1249;51.270;6.756;2023-05-07T09:08:29;25.50;94.50
2477;DHT22;1249;51.270;6.756;2023-05-07T09:10:54;25.70;94.40
2477;DHT22;1249;51.270;6.756;2023-05-07T09:13:20;25.80;93.90
2477;DHT22;1249;51.270;6.756;2023-05-07T09:15:46;25.80;94.00
2477;DHT22;1249;51.270;6.756;2023-05-07T09:18:14;25.80;93.90
2477;DHT22;1249;51.270;6.756;2023-05-07T09:20:40;25.80;93.80
2477;DHT22;1249;51.270;6.756;2023-05-07T09:23:07;25.90;93.40
2477;DHT22;1249;51.270;6.756;2023-05-07T09:25:34;25.90;93.20
2477;DHT22;1249;51.270;6.756;2023-05-07T09:28:01;25.80;93.20
2477;DHT22;1249;51.270;6.756;2023-05-07T09:30:28;25.80;93.30
2477;DHT22;1249;51.270;6.756;2023-05-07T09:32:54;25.80;93.30
2477;DHT22;1249;51.270;6.756;2023-05-07T09:35:20;25.70;93.20
2477;DHT22;1249;51.270;6.756;2023-05-07T09:37:53;25.70;93.30
2477;DHT22;1249;51.270;6.756;2023-05-07T09:40:23;25.70;93.00
2477;DHT22;1249;51.270;6.756;2023-05-07T09:42:49;25.60;92.80
2477;DHT22;1249;51.270;6.756;2023-05-07T09:45:16;25.60;93.00
2477;DHT22;1249;51.270;6.756;2023-05-07T09:47:43;25.60;92.70
2477;DHT22;1249;51.270;6.756;2023-05-07T09:50:12;25.60;93.10
2477;DHT22;1249;51.270;6.756;2023-05-07T09:52:41;25.60;93.10
2477;DHT22;1249;51.270;6.756;2023-05-07T09:55:07;25.70;93.10
2477;DHT22;1249;51.270;6.756;2023-05-07T09:57:34;25.70;92.90
2477;DHT22;1249;51.270;6.756;2023-05-07T10:00:02;25.70;92.70
2477;DHT22;1249;51.270;6.756;2023-05-07T10:02:31;25.80;92.80
2477;DHT22;1249;51.270;6.756;2023-05-07T10:04:58;26.10;92.50
2477;DHT22;1249;51.270;6.756;2023-05-07T10:07:26;26.30;92.30
2477;DHT22;1249;51.270;6.756;2023-05-07T10:09:52;26.50;91.70
2477;DHT22;1249;51.270;6.756;2023-05-07T10:12:19;26.90;90.70
2477;DHT22;1249;51.270;6.756;2023-05-07T10:14:45;27.40;90.70
2477;DHT22;1249;51.270;6.756;2023-05-07T10:17:12;27.70;90.10
2477;DHT22;1249;51.270;6.756;2023-05-07T10:19:39;27.90;89.20
2477;DHT22;1249;51.270;6.756;2023-05-07T10:22:06;28.30;87.90
2477;DHT22;1249;51.270;6.756;2023-05-07T10:24:33;28.60;86.50
2477;DHT22;1249;51.270;6.756;2023-05-07T10:27:05;28.70;85.40
2477;DHT22;1249;51.270;6.756;2023-05-07T10:29:39;28.80;84.60
2477;DHT22;1249;51.270;6.756;2023-05-07T10:32:30;28.80;84.20
2477;DHT22;1249;51.270;6.756;2023-05-07T10:35:02;28.80;83.60
2477;DHT22;1249;51.270;6.756;2023-05-07T10:37:28;28.90;83.60
2477;DHT22;1249;51.270;6.756;2023-05-07T10:39:54;28.80;83.50
2477;DHT22;1249;51.270;6.756;2023-05-07T10:42:20;28.80;83.60
2477;DHT22;1249;51.270;6.756;2023-05-07T10:44:46;28.80;83.30
2477;DHT22;1249;51.270;6.756;2023-05-07T10:47:13;28.70;83.30
2477;DHT22;1249;51.270;6.756;2023-05-07T10:52:23;28.70;82.90
2477;DHT22;1249;51.270;6.756;2023-05-07T10:57:46;28.70;82.00
2477;DHT22;1249;51.270;6.756;2023-05-07T11:05:29;29.00;80.80
2477;DHT22;1249;51.270;6.756;2023-05-07T11:07:59;29.00;80.80
2477;DHT22;1249;51.270;6.756;2023-05-07T11:10:48;29.00;80.60
2477;DHT22;1249;51.270;6.756;2023-05-07T11:13:15;29.00;80.90
2477;DHT22;1249;51.270;6.756;2023-05-07T11:15:43;29.10;80.70
2477;DHT22;1249;51.270;6.756;2023-05-07T11:18:10;29.10;80.40
2477;DHT22;1249;51.270;6.756;2023-05-07T11:20:55;29.10;80.50
2477;DHT22;1249;51.270;6.756;2023-05-07T11:26:09;29.20;80.00
2477;DHT22;1249;51.270;6.756;2023-05-07T11:28:43;29.30;79.70
2477;DHT22;1249;51.270;6.756;2023-05-07T11:31:09;29.40;79.50
2477;DHT22;1249;51.270;6.756;2023-05-07T11:33:36;29.60;79.20
2477;DHT22;1249;51.270;6.756;2023-05-07T11:36:05;29.60;78.30
2477;DHT22;1249;51.270;6.756;2023-05-07T11:38:35;29.50;79.10
2477;DHT22;1249;51.270;6.756;2023-05-07T11:41:00;29.40;78.90
2477;DHT22;1249;51.270;6.756;2023-05-07T11:43:27;29.40;78.60
2477;DHT22;1249;51.270;6.756;2023-05-07T11:45:52;29.40;78.30
2477;DHT22;1249;51.270;6.756;2023-05-07T11:48:18;29.30;78.60
2477;DHT22;1249;51.270;6.756;2023-05-07T11:51:14;29.10;78.50
2477;DHT22;1249;51.270;6.756;2023-05-07T11:53:44;29.00;79.10
2477;DHT22;1249;51.270;6.756;2023-05-07T11:56:17;28.80;79.70
2477;DHT22;1249;51.270;6.756;2023-05-07T11:58:44;28.70;79.80
2477;DHT22;1249;51.270;6.756;2023-05-07T12:01:11;28.50;80.70
2477;DHT22;1249;51.270;6.756;2023-05-07T12:03:40;28.40;81.60
2477;DHT22;1249;51.270;6.756;2023-05-07T12:06:08;28.30;82.10
2477;DHT22;1249;51.270;6.756;2023-05-07T12:08:36;28.20;82.40
2477;DHT22;1249;51.270;6.756;2023-05-07T12:11:03;28.30;83.00
2477;DHT22;1249;51.270;6.756;2023-05-07T12:13:32;28.20;82.70
2477;DHT22;1249;51.270;6.756;2023-05-07T12:15:57;28.10;82.80
2477;DHT22;1249;51.270;6.756;2023-05-07T12:18:23;28.00;83.00
2477;DHT22;1249;51.270;6.756;2023-05-07T12:20:50;27.90;83.50
2477;DHT22;1249;51.270;6.756;2023-05-07T12:23:16;27.70;83.70
2477;DHT22;1249;51.270;6.756;2023-05-07T12:25:42;27.60;84.50
2477;DHT22;1249;51.270;6.756;2023-05-07T12:28:16;27.50;85.30
2477;DHT22;1249;51.270;6.756;2023-05-07T12:30:44;27.40;84.70
2477;DHT22;1249;51.270;6.756;2023-05-07T12:33:10;27.30;85.20
2477;DHT22;1249;51.270;6.756;2023-05-07T12:35:38;27.20;85.20
2477;DHT22;1249;51.270;6.756;2023-05-07T12:38:08;27.20;84.80
2477;DHT22;1249;51.270;6.756;2023-05-07T12:40:38;27.10;85.00
2477;DHT22;1249;51.270;6.756;2023-05-07T12:43:04;27.10;85.30
2477;DHT22;1249;51.270;6.756;2023-05-07T12:45:29;27.00;85.30
2477;DHT22;1249;51.270;6.756;2023-05-07T12:47:55;27.00;85.30
2477;DHT22;1249;51.270;6.756;2023-05-07T12:50:21;27.00;85.70
2477;DHT22;1249;51.270;6.756;2023-05-07T12:52:47;27.10;85.00
2477;DHT22;1249;51.270;6.756;2023-05-07T12:55:16;27.00;85.40
2477;DHT22;1249;51.270;6.756;2023-05-07T12:57:45;27.10;85.50
2477;DHT22;1249;51.270;6.756;2023-05-07T13:00:11;27.10;85.80
2477;DHT22;1249;51.270;6.756;2023-05-07T13:02:41;27.00;85.30
2477;DHT22;1249;51.270;6.756;2023-05-07T13:05:07;27.00;85.60
2477;DHT22;1249;51.270;6.756;2023-05-07T13:07:33;27.00;85.30
2477;DHT22;1249;51.270;6.756;2023-05-07T13:09:59;27.00;85.10
2477;DHT22;1249;51.270;6.756;2023-05-07T13:12:25;26.90;85.20
2477;DHT22;1249;51.270;6.756;2023-05-07T13:14:50;26.80;85.40
2477;DHT22;1249;51.270;6.756;2023-05-07T13:17:16;26.70;85.40
2477;DHT22;1249;51.270;6.756;2023-05-07T13:19:41;26.50;82.70
2477;DHT22;1249;51.270;6.756;2023-05-07T13:22:07;26.40;82.70
2477;DHT22;1249;51.270;6.756;2023-05-07T13:24:32;26.20;83.00
2477;DHT22;1249;51.270;6.756;2023-05-07T13:26:58;26.10;83.70
2477;DHT22;1249;51.270;6.756;2023-05-07T13:29:23;26.00;83.90
2477;DHT22;1249;51.270;6.756;2023-05-07T13:31:58;25.90;84.60
2477;DHT22;1249;51.270;6.756;2023-05-07T13:34:24;25.80;84.30
2477;DHT22;1249;51.270;6.756;2023-05-07T13:36:50;25.70;84.50
2477;DHT22;1249;51.270;6.756;2023-05-07T13:39:15;25.60;84.70
2477;DHT22;1249;51.270;6.756;2023-05-07T13:41:41;25.50;84.60
2477;DHT22;1249;51.270;6.756;2023-05-07T13:44:07;25.50;84.60
2477;DHT22;1249;51.270;6.756;2023-05-07T13:46:32;25.40;86.40
2477;DHT22;1249;51.270;6.756;2023-05-07T13:48:58;25.30;86.70
2477;DHT22;1249;51.270;6.756;2023-05-07T13:51:23;25.30;86.40
2477;DHT22;1249;51.270;6.756;2023-05-07T13:53:49;25.20;87.10
2477;DHT22;1249;51.270;6.756;2023-05-07T13:56:14;25.30;87.60
2477;DHT22;1249;51.270;6.756;2023-05-07T13:58:40;25.30;87.50
2477;DHT22;1249;51.270;6.756;2023-05-07T14:01:06;25.30;87.60
2477;DHT22;1249;51.270;6.756;2023-05-07T14:03:32;25.30;88.00
2477;DHT22;1249;51.270;6.756;2023-05-07T14:05:59;25.20;88.70
2477;DHT22;1249;51.270;6.756;2023-05-07T14:08:26;25.20;88.80
2477;DHT22;1249;51.270;6.756;2023-05-07T14:10:52;25.10;89.30
2477;DHT22;1249;51.270;6.756;2023-05-07T14:13:18;25.10;89.40
2477;DHT22;1249;51.270;6.756;2023-05-07T14:15:43;25.00;90.10
2477;DHT22;1249;51.270;6.756;2023-05-07T14:18:12;25.00;90.40
2477;DHT22;1249;51.270;6.756;2023-05-07T14:20:38;25.00;90.50
2477;DHT22;1249;51.270;6.756;2023-05-07T14:23:03;24.90;90.70
2477;DHT22;1249;51.270;6.756;2023-05-07T14:25:29;24.90;90.70
2477;DHT22;1249;51.270;6.756;2023-05-07T14:27:55;24.90;90.80
2477;DHT22;1249;51.270;6.756;2023-05-07T14:30:21;24.90;91.00
2477;DHT22;1249;51.270;6.756;2023-05-07T14:32:49;24.80;91.10
2477;DHT22;1249;51.270;6.756;2023-05-07T14:35:15;24.80;91.20
2477;DHT22;1249;51.270;6.756;2023-05-07T14:37:41;24.80;91.30
2477;DHT22;1249;51.270;6.756;2023-05-07T14:40:07;24.70;91.40
2477;DHT22;1249;51.270;6.756;2023-05-07T14:42:33;24.70;91.40
2477;DHT22;1249;51.270;6.756;2023-05-07T14:44:58;24.60;91.60
2477;DHT22;1249;51.270;6.756;2023-05-07T14:47:24;24.60;91.70
2477;DHT22;1249;51.270;6.756;2023-05-07T14:49:49;24.60;91.70
2477;DHT22;1249;51.270;6.756;2023-05-07T14:52:15;24.50;91.80
2477;DHT22;1249;51.270;6.756;2023-05-07T14:54:40;24.50;91.90
2477;DHT22;1249;51.270;6.756;2023-05-07T14:57:08;24.50;92.10
2477;DHT22;1249;51.270;6.756;2023-05-07T14:59:35;24.40;92.20
2477;DHT22;1249;51.270;6.756;2023-05-07T15:02:01;24.40;92.30
2477;DHT22;1249;51.270;6.756;2023-05-07T15:04:26;24.30;92.40
2477;DHT22;1249;51.270;6.756;2023-05-07T15:06:52;24.30;92.60
2477;DHT22;1249;51.270;6.756;2023-05-07T15:09:19;24.20;92.80
2477;DHT22;1249;51.270;6.756;2023-05-07T15:11:45;24.10;93.00
2477;DHT22;1249;51.270;6.756;2023-05-07T15:14:10;24.00;93.30
2477;DHT22;1249;51.270;6.756;2023-05-07T15:16:36;24.00;93.50
2477;DHT22;1249;51.270;6.756;2023-05-07T15:19:01;24.00;93.60
2477;DHT22;1249;51.270;6.756;2023-05-07T15:21:27;23.90;93.70
2477;DHT22;1249;51.270;6.756;2023-05-07T15:23:52;24.00;93.90
2477;DHT22;1249;51.270;6.756;2023-05-07T15:26:18;23.90;94.20
2477;DHT22;1249;51.270;6.756;2023-05-07T15:28:44;23.90;94.10
2477;DHT22;1249;51.270;6.756;2023-05-07T15:31:09;23.80;94.10
2477;DHT22;1249;51.270;6.756;2023-05-07T15:33:35;23.90;94.20
2477;DHT22;1249;51.270;6.756;2023-05-07T15:36:00;23.80;94.30
2477;DHT22;1249;51.270;6.756;2023-05-07T15:38:28;23.80;94.40
2477;DHT22;1249;51.270;6.756;2023-05-07T15:40:53;23.80;94.50
2477;DHT22;1249;51.270;6.756;2023-05-07T15:43:20;23.80;94.60
2477;DHT22;1249;51.270;6.756;2023-05-07T15:45:46;23.70;94.50
2477;DHT22;1249;51.270;6.756;2023-05-07T15:48:11;23.70;94.60
2477;DHT22;1249;51.270;6.756;2023-05-07T15:50:37;23.70;94.90
2477;DHT22;1249;51.270;6.756;2023-05-07T15:53:03;23.60;94.70
2477;DHT22;1249;51.270;6.756;2023-05-07T15:55:30;23.70;94.80
2477;DHT22;1249;51.270;6.756;2023-05-07T15:57:56;23.60;94.80
2477;DHT22;1249;51.270;6.756;2023-05-07T16:00:24;23.60;94.70
2477;DHT22;1249;51.270;6.756;2023-05-07T16:02:51;23.70;94.80
2477;DHT22;1249;51.270;6.756;2023-05-07T16:05:16;23.60;94.80
2477;DHT22;1249;51.270;6.756;2023-05-07T16:07:42;23.70;94.80
2477;DHT22;1249;51.270;6.756;2023-05-07T16:10:09;23.70;94.80